Mehtap Bayraktar — TCPB — position and weather

sailwx.info

Track history (hours):
 
Tides and Currents Weather Stations Pressure Air Temp Water Temp Dewpoint Dewpoint Depression Visibility Wind Speed Wind Dir Waves Ship Positions

Mehtap Bayraktar

Last reported at 2014-Jul-23 02:32 UTC. Time now 2014-Jul-23 03:19 UTC.
Position N 38°42' E 004°13'.

Length 114 m; draft 5 m.

Type: Cargo ship. MMSI: 271000578.

Date/timePositionNaut miles runAvg speedWind from/ knotsBaromVisibWave heightAir tempDewpointWater temp
2014-Jul-23 02:32N 38°42' E 004°13'1412.2
2014-Jul-23 01:26N 38°30' E 004°20'1011.8
2014-Jul-23 00:33N 38°20' E 004°24'1412.0
2014-Jul-22 23:25N 38°07' E 004°31'3510.4
2014-Jul-22 20:05N 37°35' E 004°47'611.7
2014-Jul-22 19:33N 37°30' E 004°51'1211.8
2014-Jul-22 18:33N 37°19' E 004°56'1211.7
2014-Jul-22 17:29N 37°07' E 005°00'1112.3
2014-Jul-22 16:33N 36°56' E 005°05'14 0.3
2014-Jul-20 15:06N 36°43' E 005°09'0 0.1
2014-Jul-20 14:24N 36°43' E 005°09'3411.5
2014-Jul-20 11:29N 37°09' E 004°43'3015.6
2014-Jul-20 09:33N 37°29' E 004°15'7 7.0
2014-Jul-20 08:33N 37°34' E 004°09'1212.4
2014-Jul-20 07:33N 37°42' E 003°57'1312.5
2014-Jul-20 06:29N 37°51' E 003°45'1212.6
2014-Jul-20 05:33N 37°60' E 003°34'1812.7
2014-Jul-20 04:07N 38°12' E 003°17'712.8
2014-Jul-20 03:32N 38°17' E 003°10'1312.7
2014-Jul-20 02:33N 38°25' E 002°58'1312.6
2014-Jul-20 01:33N 38°34' E 002°46'1212.1
2014-Jul-20 00:33N 38°42' E 002°34'1212.2
2014-Jul-19 23:33N 38°50' E 002°23'1212.3
2014-Jul-19 22:33N 38°58' E 002°11'1212.0
2014-Jul-19 21:33N 39°06' E 001°60'1212.3
2014-Jul-19 20:33N 39°14' E 001°48'1312.5
2014-Jul-19 19:33N 39°20' E 001°33'1212.4
2014-Jul-19 18:33N 39°25' E 001°19'1812.4
2014-Jul-19 17:06N 39°34' E 000°58'912.3
2014-Jul-19 16:23N 39°38' E 000°48'1012.1
2014-Jul-19 15:33N 39°42' E 000°37'1211.8
2014-Jul-19 14:33N 39°48' E 000°23'1211.4
2014-Jul-19 13:31N 39°55' E 000°10'7 7.8
2014-Jul-19 12:33N 39°58' E 000°02'0 0.0
2014-Jul-19 11:27N 39°58' E 000°02'0 0.0
2014-Jul-19 09:33N 39°58' E 000°02'0 0.0
2014-Jul-19 00:27N 39°58' E 000°02'2 0.3
2014-Jul-18 17:25N 39°58' E 000°04'0 0.0
2014-Jul-18 13:31N 39°58' E 000°04'0 0.0
2014-Jul-18 12:15N 39°58' E 000°04'0 0.0
2014-Jul-18 11:11N 39°58' E 000°04'0 0.0
2014-Jul-18 10:24N 39°58' E 000°04'0 0.0
2014-Jul-18 08:29N 39°58' E 000°04'0 0.0
2014-Jul-18 07:33N 39°58' E 000°04'2 1.6
2014-Jul-18 06:33N 39°57' E 000°06'1111.2
2014-Jul-18 05:34N 39°47' E 000°13'3411.1
2014-Jul-18 02:33N 39°18' E 000°34'2210.8
2014-Jul-18 00:32N 38°59' E 000°48'1111.1
2014-Jul-17 23:34N 38°50' E 000°55'1111.3
2014-Jul-17 22:33N 38°39' E 001°01'1211.5
2014-Jul-17 21:33N 38°29' E 001°07'1211.7
2014-Jul-17 20:33N 38°20' E 001°17'1211.7
2014-Jul-17 19:33N 38°12' E 001°28'1211.9
2014-Jul-17 18:33N 38°04' E 001°39'1311.8
2014-Jul-17 17:29N 37°54' E 001°49'1111.9
2014-Jul-17 16:33N 37°46' E 001°59'1212.0
2014-Jul-17 15:33N 37°37' E 002°09'1211.9
2014-Jul-17 14:33N 37°29' E 002°19'1212.2
2014-Jul-17 13:33N 37°20' E 002°30'1212.3
2014-Jul-17 12:33N 37°11' E 002°41'1211.8
2014-Jul-17 11:33N 37°02' E 002°51'1313.2
2014-Jul-17 10:33N 36°52' E 003°02'7 0.3
2014-Jul-16 12:30N 36°46' E 003°04'0 0.0
2014-Jul-16 11:15N 36°46' E 003°04'0 0.0
2014-Jul-16 10:33N 36°46' E 003°04'0 0.0
2014-Jul-16 09:09N 36°46' E 003°04'0 0.0
2014-Jul-16 08:27N 36°46' E 003°04'0 0.0
2014-Jul-16 05:27N 36°46' E 003°04'0 0.0
2014-Jul-16 04:33N 36°46' E 003°04'0 0.0
2014-Jul-16 03:15N 36°46' E 003°04'1 0.0
2014-Jul-15 15:30N 36°46' E 003°04'9 4.4
2014-Jul-15 13:33N 36°54' E 003°05'1111.4
2014-Jul-15 12:33N 37°05' E 003°00'1111.2
2014-Jul-15 11:33N 37°16' E 002°55'3411.2
2014-Jul-15 08:33N 37°48' E 002°41'1411.2
2014-Jul-15 07:18N 38°01' E 002°35'1011.5
2014-Jul-15 06:28N 38°10' E 002°31'1211.6
2014-Jul-15 05:28N 38°21' E 002°26'1311.9
2014-Jul-15 04:23N 38°33' E 002°21'1012.3
2014-Jul-15 03:33N 38°43' E 002°16'1212.5
2014-Jul-15 02:33N 38°55' E 002°12'1212.4
2014-Jul-15 01:33N 39°06' E 002°07'1212.5
2014-Jul-15 00:34N 39°18' E 002°02'1312.7
2014-Jul-14 23:33N 39°30' E 001°57'1312.7
2014-Jul-14 22:33N 39°43' E 001°56'1313.0
2014-Jul-14 21:33N 39°56' E 001°58'1312.6
2014-Jul-14 20:34N 40°08' E 001°60'1312.7
2014-Jul-14 19:33N 40°21' E 002°02'1312.7
2014-Jul-14 18:33N 40°34' E 002°04'1312.6
2014-Jul-14 17:34N 40°46' E 002°05'1312.9
2014-Jul-14 16:33N 40°59' E 002°07'1312.9
2014-Jul-14 15:33N 41°12' E 002°10'9 0.7
2014-Jul-14 03:23N 41°21' E 002°10'0 0.0
2014-Jul-14 01:05N 41°21' E 002°10'2 4.4
2014-Jul-14 00:33N 41°18' E 002°10'1313.1
2014-Jul-13 23:33N 41°05' E 002°09'1313.2
2014-Jul-13 22:33N 40°52' E 002°07'1313.3
2014-Jul-13 21:33N 40°39' E 002°06'1413.7
2014-Jul-13 20:33N 40°25' E 002°03'1414.2
2014-Jul-13 19:33N 40°11' E 002°01'1414.2
2014-Jul-13 18:33N 39°57' E 001°59'1414.2
2014-Jul-13 17:33N 39°43' E 001°57'1413.6
2014-Jul-13 16:33N 39°29' E 001°58'1313.7
2014-Jul-13 15:34N 39°17' E 002°04'1413.4
2014-Jul-13 14:33N 39°04' E 002°09'1413.7
2014-Jul-13 13:33N 38°51' E 002°15'1413.7
2014-Jul-13 12:32N 38°38' E 002°20'11213.7
2014-Jul-13 04:22N 36°51' E 003°06'  
Track history (hours):
 
Tides and Currents Weather Stations Pressure Air Temp Water Temp Dewpoint Dewpoint Depression Visibility Wind Speed Wind Dir Waves Ship Positions

Mehtap Bayraktar

Last reported at 2014-Jul-23 02:32 UTC. Time now 2014-Jul-23 03:19 UTC.
Position N 38°42' E 004°13'.

Length 114 m; draft 5 m.

Type: Cargo ship. MMSI: 271000578.

Date/timePositionNaut miles runAvg speedWind from/ knotsBaromVisibWave heightAir tempDewpointWater temp
2014-Jul-23 02:32N 38°42' E 004°13'1412.2
2014-Jul-23 01:26N 38°30' E 004°20'1011.8
2014-Jul-23 00:33N 38°20' E 004°24'1412.0
2014-Jul-22 23:25N 38°07' E 004°31'3510.4
2014-Jul-22 20:05N 37°35' E 004°47'611.7
2014-Jul-22 19:33N 37°30' E 004°51'1211.8
2014-Jul-22 18:33N 37°19' E 004°56'1211.7
2014-Jul-22 17:29N 37°07' E 005°00'1112.3
2014-Jul-22 16:33N 36°56' E 005°05'14 0.3
2014-Jul-20 15:06N 36°43' E 005°09'0 0.1
2014-Jul-20 14:24N 36°43' E 005°09'3411.5
2014-Jul-20 11:29N 37°09' E 004°43'3015.6
2014-Jul-20 09:33N 37°29' E 004°15'7 7.0
2014-Jul-20 08:33N 37°34' E 004°09'1212.4
2014-Jul-20 07:33N 37°42' E 003°57'1312.5
2014-Jul-20 06:29N 37°51' E 003°45'1212.6
2014-Jul-20 05:33N 37°60' E 003°34'1812.7
2014-Jul-20 04:07N 38°12' E 003°17'712.8
2014-Jul-20 03:32N 38°17' E 003°10'1312.7
2014-Jul-20 02:33N 38°25' E 002°58'1312.6
2014-Jul-20 01:33N 38°34' E 002°46'1212.1
2014-Jul-20 00:33N 38°42' E 002°34'1212.2
2014-Jul-19 23:33N 38°50' E 002°23'1212.3
2014-Jul-19 22:33N 38°58' E 002°11'1212.0
2014-Jul-19 21:33N 39°06' E 001°60'1212.3
2014-Jul-19 20:33N 39°14' E 001°48'1312.5
2014-Jul-19 19:33N 39°20' E 001°33'1212.4
2014-Jul-19 18:33N 39°25' E 001°19'1812.4
2014-Jul-19 17:06N 39°34' E 000°58'912.3
2014-Jul-19 16:23N 39°38' E 000°48'1012.1
2014-Jul-19 15:33N 39°42' E 000°37'1211.8
2014-Jul-19 14:33N 39°48' E 000°23'1211.4
2014-Jul-19 13:31N 39°55' E 000°10'7 7.8
2014-Jul-19 12:33N 39°58' E 000°02'0 0.0
2014-Jul-19 11:27N 39°58' E 000°02'0 0.0
2014-Jul-19 09:33N 39°58' E 000°02'0 0.0
2014-Jul-19 00:27N 39°58' E 000°02'2 0.3
2014-Jul-18 17:25N 39°58' E 000°04'0 0.0
2014-Jul-18 13:31N 39°58' E 000°04'0 0.0
2014-Jul-18 12:15N 39°58' E 000°04'0 0.0
2014-Jul-18 11:11N 39°58' E 000°04'0 0.0
2014-Jul-18 10:24N 39°58' E 000°04'0 0.0
2014-Jul-18 08:29N 39°58' E 000°04'0 0.0
2014-Jul-18 07:33N 39°58' E 000°04'2 1.6
2014-Jul-18 06:33N 39°57' E 000°06'1111.2
2014-Jul-18 05:34N 39°47' E 000°13'3411.1
2014-Jul-18 02:33N 39°18' E 000°34'2210.8
2014-Jul-18 00:32N 38°59' E 000°48'1111.1
2014-Jul-17 23:34N 38°50' E 000°55'1111.3
2014-Jul-17 22:33N 38°39' E 001°01'1211.5
2014-Jul-17 21:33N 38°29' E 001°07'1211.7
2014-Jul-17 20:33N 38°20' E 001°17'1211.7
2014-Jul-17 19:33N 38°12' E 001°28'1211.9
2014-Jul-17 18:33N 38°04' E 001°39'1311.8
2014-Jul-17 17:29N 37°54' E 001°49'1111.9
2014-Jul-17 16:33N 37°46' E 001°59'1212.0
2014-Jul-17 15:33N 37°37' E 002°09'1211.9
2014-Jul-17 14:33N 37°29' E 002°19'1212.2
2014-Jul-17 13:33N 37°20' E 002°30'1212.3
2014-Jul-17 12:33N 37°11' E 002°41'1211.8
2014-Jul-17 11:33N 37°02' E 002°51'1313.2
2014-Jul-17 10:33N 36°52' E 003°02'7 0.3
2014-Jul-16 12:30N 36°46' E 003°04'0 0.0
2014-Jul-16 11:15N 36°46' E 003°04'0 0.0
2014-Jul-16 10:33N 36°46' E 003°04'0 0.0
2014-Jul-16 09:09N 36°46' E 003°04'0 0.0
2014-Jul-16 08:27N 36°46' E 003°04'0 0.0
2014-Jul-16 05:27N 36°46' E 003°04'0 0.0
2014-Jul-16 04:33N 36°46' E 003°04'0 0.0
2014-Jul-16 03:15N 36°46' E 003°04'1 0.0
2014-Jul-15 15:30N 36°46' E 003°04'9 4.4
2014-Jul-15 13:33N 36°54' E 003°05'1111.4
2014-Jul-15 12:33N 37°05' E 003°00'1111.2
2014-Jul-15 11:33N 37°16' E 002°55'3411.2
2014-Jul-15 08:33N 37°48' E 002°41'1411.2
2014-Jul-15 07:18N 38°01' E 002°35'1011.5
2014-Jul-15 06:28N 38°10' E 002°31'1211.6
2014-Jul-15 05:28N 38°21' E 002°26'1311.9
2014-Jul-15 04:23N 38°33' E 002°21'1012.3
2014-Jul-15 03:33N 38°43' E 002°16'1212.5
2014-Jul-15 02:33N 38°55' E 002°12'1212.4
2014-Jul-15 01:33N 39°06' E 002°07'1212.5
2014-Jul-15 00:34N 39°18' E 002°02'1312.7
2014-Jul-14 23:33N 39°30' E 001°57'1312.7
2014-Jul-14 22:33N 39°43' E 001°56'1313.0
2014-Jul-14 21:33N 39°56' E 001°58'1312.6
2014-Jul-14 20:34N 40°08' E 001°60'1312.7
2014-Jul-14 19:33N 40°21' E 002°02'1312.7
2014-Jul-14 18:33N 40°34' E 002°04'1312.6
2014-Jul-14 17:34N 40°46' E 002°05'1312.9
2014-Jul-14 16:33N 40°59' E 002°07'1312.9
2014-Jul-14 15:33N 41°12' E 002°10'9 0.7
2014-Jul-14 03:23N 41°21' E 002°10'0 0.0
2014-Jul-14 01:05N 41°21' E 002°10'2 4.4
2014-Jul-14 00:33N 41°18' E 002°10'1313.1
2014-Jul-13 23:33N 41°05' E 002°09'1313.2
2014-Jul-13 22:33N 40°52' E 002°07'1313.3
2014-Jul-13 21:33N 40°39' E 002°06'1413.7
2014-Jul-13 20:33N 40°25' E 002°03'1414.2
2014-Jul-13 19:33N 40°11' E 002°01'1414.2
2014-Jul-13 18:33N 39°57' E 001°59'1414.2
2014-Jul-13 17:33N 39°43' E 001°57'1413.6
2014-Jul-13 16:33N 39°29' E 001°58'1313.7
2014-Jul-13 15:34N 39°17' E 002°04'1413.4
2014-Jul-13 14:33N 39°04' E 002°09'1413.7
2014-Jul-13 13:33N 38°51' E 002°15'1413.7
2014-Jul-13 12:32N 38°38' E 002°20'11213.7
2014-Jul-13 04:22N 36°51' E 003°06'  

Dump ship's entire track history